Turtle Creek, Pennsylvania
Current Conditions -  °F | °C
As of 3:53 PM on Thursday 20 Nov 2014 (Local Time) from KAGC Reporting Station
Scattered Clouds Scattered Clouds  
Wind Chill: 15°   Ceiling: Unl
Heat Index: 27°   Visibility: 10mi
Dew Point:   Wind: 15mph
Humidity: 43%   Direction: 270°W
Pressure: 29.99"   Gusts: 24mph
Location:  40.41°N, 79.82°W
Report Text: KAGC 202053Z 27013G21KT 10SM SCT050 M03/M14 A2999 RMK AO2 SLP177 T10281139 53004
Loading
Personal Weather Stations






























Interactive Weather Map New forecast layout! Learn more

10-Day Weather Forecast

Advertisements
Track Severe Weather on mobile